<?xml version="1.0" encoding="UTF-8" standalone="no" ?>
<gpx xmlns="http://www.topografix.com/GPX/1/1" xmlns:xsi="http://www.w3.org/2001/XMLSchema-instance" xsi:schemaLocation="http://www.topografix.com/GPX/1/1 http://www.topografix.com/GPX/1/1/gpx.xsd" version="1.1" creator="VisuGPX - https://www.visugpx.com">
  <metadata>
    <name>marche du 8 Mai 2014</name>
    <desc><![CDATA[marche de l amicale des sapeur pompier de merxheim]]></desc>
  </metadata>
  <trk>
    <name><![CDATA[04-MAI-14 13:21:29]]></name>
    <trkseg>
      <trkpt lat="47.91127" lon="7.29165">
        <ele>224.61</ele>
        <time>2014-05-04T09:09:09Z</time>
      </trkpt>
      <trkpt lat="47.91128" lon="7.29165">
        <ele>225.09</ele>
        <time>2014-05-04T09:09:31Z</time>
      </trkpt>
      <trkpt lat="47.91127" lon="7.29164">
        <ele>225.09</ele>
        <time>2014-05-04T09:09:52Z</time>
      </trkpt>
      <trkpt lat="47.91127" lon="7.29164">
        <ele>225.57</ele>
        <time>2014-05-04T09:10:03Z</time>
      </trkpt>
      <trkpt lat="47.91117" lon="7.29168">
        <ele>226.05</ele>
        <time>2014-05-04T09:10:12Z</time>
      </trkpt>
      <trkpt lat="47.91111" lon="7.29162">
        <ele>225.57</ele>
        <time>2014-05-04T09:10:19Z</time>
      </trkpt>
      <trkpt lat="47.91105" lon="7.29155">
        <ele>226.53</ele>
        <time>2014-05-04T09:10:24Z</time>
      </trkpt>
      <trkpt lat="47.91098" lon="7.29129">
        <ele>229.41</ele>
        <time>2014-05-04T09:10:37Z</time>
      </trkpt>
      <trkpt lat="47.91097" lon="7.29119">
        <ele>229.89</ele>
        <time>2014-05-04T09:10:42Z</time>
      </trkpt>
      <trkpt lat="47.91094" lon="7.29096">
        <ele>229.89</ele>
        <time>2014-05-04T09:10:54Z</time>
      </trkpt>
      <trkpt lat="47.91088" lon="7.29077">
        <ele>228.93</ele>
        <time>2014-05-04T09:11:06Z</time>
      </trkpt>
      <trkpt lat="47.91087" lon="7.29056">
        <ele>228.93</ele>
        <time>2014-05-04T09:11:17Z</time>
      </trkpt>
      <trkpt lat="47.91078" lon="7.29027">
        <ele>225.57</ele>
        <time>2014-05-04T09:11:32Z</time>
      </trkpt>
      <trkpt lat="47.91067" lon="7.29005">
        <ele>228.45</ele>
        <time>2014-05-04T09:11:46Z</time>
      </trkpt>
      <trkpt lat="47.91061" lon="7.28983">
        <ele>229.89</ele>
        <time>2014-05-04T09:12:00Z</time>
      </trkpt>
      <trkpt lat="47.91053" lon="7.2896">
        <ele>229.41</ele>
        <time>2014-05-04T09:12:12Z</time>
      </trkpt>
      <trkpt lat="47.91045" lon="7.28927">
        <ele>227.49</ele>
        <time>2014-05-04T09:12:26Z</time>
      </trkpt>
      <trkpt lat="47.91042" lon="7.289">
        <ele>224.61</ele>
        <time>2014-05-04T09:12:40Z</time>
      </trkpt>
      <trkpt lat="47.91043" lon="7.28871">
        <ele>223.16</ele>
        <time>2014-05-04T09:12:56Z</time>
      </trkpt>
      <trkpt lat="47.9104" lon="7.28841">
        <ele>222.2</ele>
        <time>2014-05-04T09:13:12Z</time>
      </trkpt>
      <trkpt lat="47.91034" lon="7.2881">
        <ele>220.76</ele>
        <time>2014-05-04T09:13:26Z</time>
      </trkpt>
      <trkpt lat="47.91031" lon="7.28783">
        <ele>221.24</ele>
        <time>2014-05-04T09:13:41Z</time>
      </trkpt>
      <trkpt lat="47.91026" lon="7.28752">
        <ele>220.76</ele>
        <time>2014-05-04T09:13:57Z</time>
      </trkpt>
      <trkpt lat="47.91021" lon="7.28728">
        <ele>220.76</ele>
        <time>2014-05-04T09:14:10Z</time>
      </trkpt>
      <trkpt lat="47.91013" lon="7.28696">
        <ele>223.16</ele>
        <time>2014-05-04T09:14:26Z</time>
      </trkpt>
      <trkpt lat="47.91007" lon="7.2866">
        <ele>226.05</ele>
        <time>2014-05-04T09:14:44Z</time>
      </trkpt>
      <trkpt lat="47.91005" lon="7.28628">
        <ele>226.53</ele>
        <time>2014-05-04T09:15:01Z</time>
      </trkpt>
      <trkpt lat="47.90996" lon="7.28593">
        <ele>228.93</ele>
        <time>2014-05-04T09:15:18Z</time>
      </trkpt>
      <trkpt lat="47.90991" lon="7.2856">
        <ele>227.97</ele>
        <time>2014-05-04T09:15:36Z</time>
      </trkpt>
      <trkpt lat="47.90987" lon="7.28527">
        <ele>226.05</ele>
        <time>2014-05-04T09:15:54Z</time>
      </trkpt>
      <trkpt lat="47.90984" lon="7.28494">
        <ele>226.53</ele>
        <time>2014-05-04T09:16:12Z</time>
      </trkpt>
      <trkpt lat="47.90978" lon="7.2846">
        <ele>228.93</ele>
        <time>2014-05-04T09:16:29Z</time>
      </trkpt>
      <trkpt lat="47.90977" lon="7.2844">
        <ele>230.37</ele>
        <time>2014-05-04T09:16:42Z</time>
      </trkpt>
      <trkpt lat="47.90977" lon="7.28437">
        <ele>230.37</ele>
        <time>2014-05-04T09:16:44Z</time>
      </trkpt>
      <trkpt lat="47.90975" lon="7.28416">
        <ele>224.61</ele>
        <time>2014-05-04T09:17:00Z</time>
      </trkpt>
      <trkpt lat="47.90974" lon="7.28416">
        <ele>229.89</ele>
        <time>2014-05-04T09:17:05Z</time>
      </trkpt>
      <trkpt lat="47.90974" lon="7.28415">
        <ele>230.37</ele>
        <time>2014-05-04T09:17:07Z</time>
      </trkpt>
      <trkpt lat="47.9097" lon="7.28388">
        <ele>233.26</ele>
        <time>2014-05-04T09:17:22Z</time>
      </trkpt>
      <trkpt lat="47.90964" lon="7.28353">
        <ele>238.54</ele>
        <time>2014-05-04T09:17:40Z</time>
      </trkpt>
      <trkpt lat="47.90963" lon="7.28344">
        <ele>237.58</ele>
        <time>2014-05-04T09:17:45Z</time>
      </trkpt>
      <trkpt lat="47.90961" lon="7.28326">
        <ele>233.74</ele>
        <time>2014-05-04T09:17:56Z</time>
      </trkpt>
      <trkpt lat="47.90962" lon="7.28293">
        <ele>228.93</ele>
        <time>2014-05-04T09:18:15Z</time>
      </trkpt>
      <trkpt lat="47.90961" lon="7.2826">
        <ele>225.57</ele>
        <time>2014-05-04T09:18:32Z</time>
      </trkpt>
      <trkpt lat="47.90959" lon="7.28239">
        <ele>227.97</ele>
        <time>2014-05-04T09:18:45Z</time>
      </trkpt>
      <trkpt lat="47.90958" lon="7.28219">
        <ele>230.37</ele>
        <time>2014-05-04T09:18:57Z</time>
      </trkpt>
      <trkpt lat="47.90965" lon="7.28194">
        <ele>228.45</ele>
        <time>2014-05-04T09:19:13Z</time>
      </trkpt>
      <trkpt lat="47.90974" lon="7.28169">
        <ele>227.01</ele>
        <time>2014-05-04T09:19:28Z</time>
      </trkpt>
      <trkpt lat="47.90983" lon="7.28143">
        <ele>225.09</ele>
        <time>2014-05-04T09:19:43Z</time>
      </trkpt>
      <trkpt lat="47.90992" lon="7.28125">
        <ele>224.61</ele>
        <time>2014-05-04T09:19:55Z</time>
      </trkpt>
      <trkpt lat="47.90997" lon="7.28096">
        <ele>224.61</ele>
        <time>2014-05-04T09:20:10Z</time>
      </trkpt>
      <trkpt lat="47.90997" lon="7.28088">
        <ele>225.09</ele>
        <time>2014-05-04T09:20:14Z</time>
      </trkpt>
      <trkpt lat="47.90994" lon="7.28054">
        <ele>227.01</ele>
        <time>2014-05-04T09:20:31Z</time>
      </trkpt>
      <trkpt lat="47.90989" lon="7.28028">
        <ele>227.01</ele>
        <time>2014-05-04T09:20:46Z</time>
      </trkpt>
      <trkpt lat="47.90982" lon="7.27999">
        <ele>227.49</ele>
        <time>2014-05-04T09:21:02Z</time>
      </trkpt>
      <trkpt lat="47.90974" lon="7.27973">
        <ele>226.05</ele>
        <time>2014-05-04T09:21:18Z</time>
      </trkpt>
      <trkpt lat="47.90965" lon="7.27936">
        <ele>227.97</ele>
        <time>2014-05-04T09:21:37Z</time>
      </trkpt>
      <trkpt lat="47.90957" lon="7.279">
        <ele>228.45</ele>
        <time>2014-05-04T09:21:58Z</time>
      </trkpt>
      <trkpt lat="47.90949" lon="7.2788">
        <ele>228.93</ele>
        <time>2014-05-04T09:22:11Z</time>
      </trkpt>
      <trkpt lat="47.90939" lon="7.27859">
        <ele>227.97</ele>
        <time>2014-05-04T09:22:25Z</time>
      </trkpt>
      <trkpt lat="47.90928" lon="7.27836">
        <ele>231.33</ele>
        <time>2014-05-04T09:22:38Z</time>
      </trkpt>
      <trkpt lat="47.90921" lon="7.27825">
        <ele>231.81</ele>
        <time>2014-05-04T09:22:49Z</time>
      </trkpt>
      <trkpt lat="47.90916" lon="7.27828">
        <ele>232.78</ele>
        <time>2014-05-04T09:22:54Z</time>
      </trkpt>
      <trkpt lat="47.90897" lon="7.27829">
        <ele>231.81</ele>
        <time>2014-05-04T09:23:11Z</time>
      </trkpt>
      <trkpt lat="47.90877" lon="7.27831">
        <ele>231.33</ele>
        <time>2014-05-04T09:23:26Z</time>
      </trkpt>
      <trkpt lat="47.90872" lon="7.2783">
        <ele>231.33</ele>
        <time>2014-05-04T09:23:30Z</time>
      </trkpt>
      <trkpt lat="47.90851" lon="7.27832">
        <ele>231.81</ele>
        <time>2014-05-04T09:23:46Z</time>
      </trkpt>
      <trkpt lat="47.90836" lon="7.27832">
        <ele>231.81</ele>
        <time>2014-05-04T09:23:58Z</time>
      </trkpt>
      <trkpt lat="47.90821" lon="7.27832">
        <ele>230.85</ele>
        <time>2014-05-04T09:24:09Z</time>
      </trkpt>
      <trkpt lat="47.90812" lon="7.27833">
        <ele>231.33</ele>
        <time>2014-05-04T09:24:15Z</time>
      </trkpt>
      <trkpt lat="47.90808" lon="7.27835">
        <ele>231.33</ele>
        <time>2014-05-04T09:24:18Z</time>
      </trkpt>
      <trkpt lat="47.90793" lon="7.27835">
        <ele>230.37</ele>
        <time>2014-05-04T09:24:32Z</time>
      </trkpt>
      <trkpt lat="47.90775" lon="7.27841">
        <ele>229.41</ele>
        <time>2014-05-04T09:24:46Z</time>
      </trkpt>
      <trkpt lat="47.90774" lon="7.27842">
        <ele>228.93</ele>
        <time>2014-05-04T09:24:47Z</time>
      </trkpt>
      <trkpt lat="47.90761" lon="7.27845">
        <ele>229.41</ele>
        <time>2014-05-04T09:24:59Z</time>
      </trkpt>
      <trkpt lat="47.90742" lon="7.27851">
        <ele>230.85</ele>
        <time>2014-05-04T09:25:14Z</time>
      </trkpt>
      <trkpt lat="47.90727" lon="7.27854">
        <ele>231.33</ele>
        <time>2014-05-04T09:25:28Z</time>
      </trkpt>
      <trkpt lat="47.90712" lon="7.27855">
        <ele>230.37</ele>
        <time>2014-05-04T09:25:42Z</time>
      </trkpt>
      <trkpt lat="47.90695" lon="7.27861">
        <ele>227.97</ele>
        <time>2014-05-04T09:25:55Z</time>
      </trkpt>
      <trkpt lat="47.90675" lon="7.27859">
        <ele>227.97</ele>
        <time>2014-05-04T09:26:11Z</time>
      </trkpt>
      <trkpt lat="47.90656" lon="7.27857">
        <ele>227.97</ele>
        <time>2014-05-04T09:26:26Z</time>
      </trkpt>
      <trkpt lat="47.90634" lon="7.27855">
        <ele>227.97</ele>
        <time>2014-05-04T09:26:43Z</time>
      </trkpt>
      <trkpt lat="47.90613" lon="7.27855">
        <ele>227.97</ele>
        <time>2014-05-04T09:26:58Z</time>
      </trkpt>
      <trkpt lat="47.90598" lon="7.27857">
        <ele>228.45</ele>
        <time>2014-05-04T09:27:10Z</time>
      </trkpt>
      <trkpt lat="47.90578" lon="7.27858">
        <ele>228.45</ele>
        <time>2014-05-04T09:27:25Z</time>
      </trkpt>
      <trkpt lat="47.9056" lon="7.27853">
        <ele>228.93</ele>
        <time>2014-05-04T09:27:38Z</time>
      </trkpt>
      <trkpt lat="47.90548" lon="7.2785">
        <ele>229.41</ele>
        <time>2014-05-04T09:27:52Z</time>
      </trkpt>
      <trkpt lat="47.90542" lon="7.27846">
        <ele>228.45</ele>
        <time>2014-05-04T09:28:04Z</time>
      </trkpt>
      <trkpt lat="47.90529" lon="7.27835">
        <ele>228.45</ele>
        <time>2014-05-04T09:28:19Z</time>
      </trkpt>
      <trkpt lat="47.90524" lon="7.27837">
        <ele>228.45</ele>
        <time>2014-05-04T09:28:29Z</time>
      </trkpt>
      <trkpt lat="47.90506" lon="7.27835">
        <ele>228.45</ele>
        <time>2014-05-04T09:28:43Z</time>
      </trkpt>
      <trkpt lat="47.90489" lon="7.27831">
        <ele>229.41</ele>
        <time>2014-05-04T09:28:58Z</time>
      </trkpt>
      <trkpt lat="47.90466" lon="7.27831">
        <ele>228.93</ele>
        <time>2014-05-04T09:29:16Z</time>
      </trkpt>
      <trkpt lat="47.90446" lon="7.27831">
        <ele>229.41</ele>
        <time>2014-05-04T09:29:32Z</time>
      </trkpt>
      <trkpt lat="47.90423" lon="7.27832">
        <ele>229.89</ele>
        <time>2014-05-04T09:29:50Z</time>
      </trkpt>
      <trkpt lat="47.90413" lon="7.27845">
        <ele>229.41</ele>
        <time>2014-05-04T09:30:01Z</time>
      </trkpt>
      <trkpt lat="47.90413" lon="7.27848">
        <ele>229.41</ele>
        <time>2014-05-04T09:30:03Z</time>
      </trkpt>
      <trkpt lat="47.90416" lon="7.27876">
        <ele>229.89</ele>
        <time>2014-05-04T09:30:16Z</time>
      </trkpt>
      <trkpt lat="47.90423" lon="7.27905">
        <ele>231.33</ele>
        <time>2014-05-04T09:30:30Z</time>
      </trkpt>
      <trkpt lat="47.90437" lon="7.27941">
        <ele>230.85</ele>
        <time>2014-05-04T09:30:50Z</time>
      </trkpt>
      <trkpt lat="47.90444" lon="7.27969">
        <ele>229.41</ele>
        <time>2014-05-04T09:31:07Z</time>
      </trkpt>
      <trkpt lat="47.90437" lon="7.27973">
        <ele>228.93</ele>
        <time>2014-05-04T09:31:13Z</time>
      </trkpt>
      <trkpt lat="47.90418" lon="7.27974">
        <ele>228.45</ele>
        <time>2014-05-04T09:31:27Z</time>
      </trkpt>
      <trkpt lat="47.90399" lon="7.27975">
        <ele>227.97</ele>
        <time>2014-05-04T09:31:42Z</time>
      </trkpt>
      <trkpt lat="47.90383" lon="7.27976">
        <ele>228.93</ele>
        <time>2014-05-04T09:31:54Z</time>
      </trkpt>
      <trkpt lat="47.90362" lon="7.27973">
        <ele>230.37</ele>
        <time>2014-05-04T09:32:10Z</time>
      </trkpt>
      <trkpt lat="47.9034" lon="7.27974">
        <ele>230.85</ele>
        <time>2014-05-04T09:32:29Z</time>
      </trkpt>
      <trkpt lat="47.90321" lon="7.2797">
        <ele>229.89</ele>
        <time>2014-05-04T09:32:42Z</time>
      </trkpt>
      <trkpt lat="47.90312" lon="7.27964">
        <ele>228.93</ele>
        <time>2014-05-04T09:32:50Z</time>
      </trkpt>
      <trkpt lat="47.90293" lon="7.27972">
        <ele>227.49</ele>
        <time>2014-05-04T09:33:03Z</time>
      </trkpt>
      <trkpt lat="47.90273" lon="7.27976">
        <ele>227.49</ele>
        <time>2014-05-04T09:33:17Z</time>
      </trkpt>
      <trkpt lat="47.90254" lon="7.27975">
        <ele>227.97</ele>
        <time>2014-05-04T09:33:33Z</time>
      </trkpt>
      <trkpt lat="47.90239" lon="7.27975">
        <ele>228.93</ele>
        <time>2014-05-04T09:33:44Z</time>
      </trkpt>
      <trkpt lat="47.90218" lon="7.27974">
        <ele>228.93</ele>
        <time>2014-05-04T09:34:00Z</time>
      </trkpt>
      <trkpt lat="47.90197" lon="7.27975">
        <ele>228.93</ele>
        <time>2014-05-04T09:34:16Z</time>
      </trkpt>
      <trkpt lat="47.9018" lon="7.27974">
        <ele>227.97</ele>
        <time>2014-05-04T09:34:30Z</time>
      </trkpt>
      <trkpt lat="47.90162" lon="7.27976">
        <ele>227.01</ele>
        <time>2014-05-04T09:34:44Z</time>
      </trkpt>
      <trkpt lat="47.90144" lon="7.27975">
        <ele>225.57</ele>
        <time>2014-05-04T09:34:58Z</time>
      </trkpt>
      <trkpt lat="47.90123" lon="7.27976">
        <ele>225.09</ele>
        <time>2014-05-04T09:35:14Z</time>
      </trkpt>
      <trkpt lat="47.90105" lon="7.27976">
        <ele>225.09</ele>
        <time>2014-05-04T09:35:27Z</time>
      </trkpt>
      <trkpt lat="47.90085" lon="7.27976">
        <ele>226.05</ele>
        <time>2014-05-04T09:35:42Z</time>
      </trkpt>
      <trkpt lat="47.90064" lon="7.27975">
        <ele>227.49</ele>
        <time>2014-05-04T09:35:57Z</time>
      </trkpt>
      <trkpt lat="47.90043" lon="7.27976">
        <ele>229.41</ele>
        <time>2014-05-04T09:36:13Z</time>
      </trkpt>
      <trkpt lat="47.90024" lon="7.27976">
        <ele>230.37</ele>
        <time>2014-05-04T09:36:27Z</time>
      </trkpt>
      <trkpt lat="47.90004" lon="7.27977">
        <ele>231.81</ele>
        <time>2014-05-04T09:36:43Z</time>
      </trkpt>
      <trkpt lat="47.89987" lon="7.27982">
        <ele>234.7</ele>
        <time>2014-05-04T09:36:57Z</time>
      </trkpt>
      <trkpt lat="47.89966" lon="7.27985">
        <ele>239.51</ele>
        <time>2014-05-04T09:37:14Z</time>
      </trkpt>
      <trkpt lat="47.89945" lon="7.2798">
        <ele>239.99</ele>
        <time>2014-05-04T09:37:32Z</time>
      </trkpt>
      <trkpt lat="47.89934" lon="7.27989">
        <ele>238.06</ele>
        <time>2014-05-04T09:37:44Z</time>
      </trkpt>
      <trkpt lat="47.89936" lon="7.28022">
        <ele>235.18</ele>
        <time>2014-05-04T09:38:02Z</time>
      </trkpt>
      <trkpt lat="47.89936" lon="7.28029">
        <ele>234.22</ele>
        <time>2014-05-04T09:38:05Z</time>
      </trkpt>
      <trkpt lat="47.8994" lon="7.2806">
        <ele>233.74</ele>
        <time>2014-05-04T09:38:23Z</time>
      </trkpt>
      <trkpt lat="47.89942" lon="7.28095">
        <ele>232.78</ele>
        <time>2014-05-04T09:38:41Z</time>
      </trkpt>
      <trkpt lat="47.89944" lon="7.28114">
        <ele>230.37</ele>
        <time>2014-05-04T09:38:55Z</time>
      </trkpt>
      <trkpt lat="47.89946" lon="7.28139">
        <ele>228.45</ele>
        <time>2014-05-04T09:39:07Z</time>
      </trkpt>
      <trkpt lat="47.89951" lon="7.28174">
        <ele>228.93</ele>
        <time>2014-05-04T09:39:24Z</time>
      </trkpt>
      <trkpt lat="47.89955" lon="7.28203">
        <ele>229.41</ele>
        <time>2014-05-04T09:39:40Z</time>
      </trkpt>
      <trkpt lat="47.89956" lon="7.28235">
        <ele>229.89</ele>
        <time>2014-05-04T09:39:57Z</time>
      </trkpt>
      <trkpt lat="47.89958" lon="7.28261">
        <ele>228.45</ele>
        <time>2014-05-04T09:40:13Z</time>
      </trkpt>
      <trkpt lat="47.89959" lon="7.28285">
        <ele>227.49</ele>
        <time>2014-05-04T09:40:28Z</time>
      </trkpt>
      <trkpt lat="47.89961" lon="7.28321">
        <ele>226.05</ele>
        <time>2014-05-04T09:40:46Z</time>
      </trkpt>
      <trkpt lat="47.8996" lon="7.28354">
        <ele>227.01</ele>
        <time>2014-05-04T09:41:01Z</time>
      </trkpt>
      <trkpt lat="47.89961" lon="7.28384">
        <ele>227.97</ele>
        <time>2014-05-04T09:41:17Z</time>
      </trkpt>
      <trkpt lat="47.89962" lon="7.28413">
        <ele>227.97</ele>
        <time>2014-05-04T09:41:32Z</time>
      </trkpt>
      <trkpt lat="47.89964" lon="7.2844">
        <ele>226.53</ele>
        <time>2014-05-04T09:41:45Z</time>
      </trkpt>
      <trkpt lat="47.89964" lon="7.28462">
        <ele>224.61</ele>
        <time>2014-05-04T09:41:57Z</time>
      </trkpt>
      <trkpt lat="47.89963" lon="7.28466">
        <ele>224.61</ele>
        <time>2014-05-04T09:41:59Z</time>
      </trkpt>
      <trkpt lat="47.89957" lon="7.28469">
        <ele>224.61</ele>
        <time>2014-05-04T09:42:04Z</time>
      </trkpt>
      <trkpt lat="47.89937" lon="7.28461">
        <ele>224.61</ele>
        <time>2014-05-04T09:42:19Z</time>
      </trkpt>
      <trkpt lat="47.89935" lon="7.2846">
        <ele>225.09</ele>
        <time>2014-05-04T09:42:21Z</time>
      </trkpt>
      <trkpt lat="47.89929" lon="7.28456">
        <ele>225.09</ele>
        <time>2014-05-04T09:42:27Z</time>
      </trkpt>
      <trkpt lat="47.89913" lon="7.28449">
        <ele>227.01</ele>
        <time>2014-05-04T09:42:40Z</time>
      </trkpt>
      <trkpt lat="47.89897" lon="7.28443">
        <ele>229.41</ele>
        <time>2014-05-04T09:42:54Z</time>
      </trkpt>
      <trkpt lat="47.89889" lon="7.28437">
        <ele>230.85</ele>
        <time>2014-05-04T09:43:01Z</time>
      </trkpt>
      <trkpt lat="47.8988" lon="7.28447">
        <ele>232.3</ele>
        <time>2014-05-04T09:43:10Z</time>
      </trkpt>
      <trkpt lat="47.89878" lon="7.28462">
        <ele>230.85</ele>
        <time>2014-05-04T09:43:18Z</time>
      </trkpt>
      <trkpt lat="47.89879" lon="7.28491">
        <ele>229.41</ele>
        <time>2014-05-04T09:43:33Z</time>
      </trkpt>
      <trkpt lat="47.89885" lon="7.2853">
        <ele>228.45</ele>
        <time>2014-05-04T09:43:52Z</time>
      </trkpt>
      <trkpt lat="47.8989" lon="7.28557">
        <ele>227.49</ele>
        <time>2014-05-04T09:44:05Z</time>
      </trkpt>
      <trkpt lat="47.89893" lon="7.28583">
        <ele>226.53</ele>
        <time>2014-05-04T09:44:19Z</time>
      </trkpt>
      <trkpt lat="47.89896" lon="7.28615">
        <ele>224.12</ele>
        <time>2014-05-04T09:44:34Z</time>
      </trkpt>
      <trkpt lat="47.89897" lon="7.28641">
        <ele>221.72</ele>
        <time>2014-05-04T09:44:45Z</time>
      </trkpt>
      <trkpt lat="47.89898" lon="7.2867">
        <ele>219.32</ele>
        <time>2014-05-04T09:44:58Z</time>
      </trkpt>
      <trkpt lat="47.89898" lon="7.28689">
        <ele>216.91</ele>
        <time>2014-05-04T09:45:07Z</time>
      </trkpt>
      <trkpt lat="47.899" lon="7.28707">
        <ele>214.03</ele>
        <time>2014-05-04T09:45:20Z</time>
      </trkpt>
      <trkpt lat="47.89904" lon="7.2873">
        <ele>214.03</ele>
        <time>2014-05-04T09:45:34Z</time>
      </trkpt>
      <trkpt lat="47.89909" lon="7.28752">
        <ele>214.03</ele>
        <time>2014-05-04T09:45:45Z</time>
      </trkpt>
      <trkpt lat="47.89916" lon="7.28781">
        <ele>216.43</ele>
        <time>2014-05-04T09:45:59Z</time>
      </trkpt>
      <trkpt lat="47.89924" lon="7.28815">
        <ele>217.88</ele>
        <time>2014-05-04T09:46:16Z</time>
      </trkpt>
      <trkpt lat="47.89927" lon="7.28836">
        <ele>219.8</ele>
        <time>2014-05-04T09:46:28Z</time>
      </trkpt>
      <trkpt lat="47.89932" lon="7.2886">
        <ele>221.24</ele>
        <time>2014-05-04T09:46:41Z</time>
      </trkpt>
      <trkpt lat="47.89937" lon="7.28889">
        <ele>221.72</ele>
        <time>2014-05-04T09:46:56Z</time>
      </trkpt>
      <trkpt lat="47.89942" lon="7.28915">
        <ele>223.64</ele>
        <time>2014-05-04T09:47:10Z</time>
      </trkpt>
      <trkpt lat="47.89946" lon="7.28945">
        <ele>226.05</ele>
        <time>2014-05-04T09:47:25Z</time>
      </trkpt>
      <trkpt lat="47.89951" lon="7.28982">
        <ele>228.45</ele>
        <time>2014-05-04T09:47:43Z</time>
      </trkpt>
      <trkpt lat="47.89955" lon="7.29008">
        <ele>229.89</ele>
        <time>2014-05-04T09:47:56Z</time>
      </trkpt>
      <trkpt lat="47.8996" lon="7.29039">
        <ele>230.85</ele>
        <time>2014-05-04T09:48:13Z</time>
      </trkpt>
      <trkpt lat="47.89965" lon="7.29078">
        <ele>230.85</ele>
        <time>2014-05-04T09:48:33Z</time>
      </trkpt>
      <trkpt lat="47.89968" lon="7.29109">
        <ele>230.37</ele>
        <time>2014-05-04T09:48:49Z</time>
      </trkpt>
      <trkpt lat="47.89968" lon="7.29132">
        <ele>229.89</ele>
        <time>2014-05-04T09:49:02Z</time>
      </trkpt>
      <trkpt lat="47.89965" lon="7.29158">
        <ele>229.41</ele>
        <time>2014-05-04T09:49:16Z</time>
      </trkpt>
      <trkpt lat="47.89962" lon="7.29182">
        <ele>229.41</ele>
        <time>2014-05-04T09:49:28Z</time>
      </trkpt>
      <trkpt lat="47.89959" lon="7.29207">
        <ele>228.93</ele>
        <time>2014-05-04T09:49:41Z</time>
      </trkpt>
      <trkpt lat="47.89957" lon="7.2923">
        <ele>227.97</ele>
        <time>2014-05-04T09:49:54Z</time>
      </trkpt>
      <trkpt lat="47.89957" lon="7.29233">
        <ele>227.49</ele>
        <time>2014-05-04T09:49:56Z</time>
      </trkpt>
      <trkpt lat="47.89961" lon="7.29241">
        <ele>227.01</ele>
        <time>2014-05-04T09:50:02Z</time>
      </trkpt>
      <trkpt lat="47.89983" lon="7.29234">
        <ele>225.57</ele>
        <time>2014-05-04T09:50:17Z</time>
      </trkpt>
      <trkpt lat="47.90001" lon="7.29229">
        <ele>224.12</ele>
        <time>2014-05-04T09:50:31Z</time>
      </trkpt>
      <trkpt lat="47.90014" lon="7.29224">
        <ele>223.16</ele>
        <time>2014-05-04T09:50:44Z</time>
      </trkpt>
      <trkpt lat="47.90032" lon="7.2922">
        <ele>223.16</ele>
        <time>2014-05-04T09:50:57Z</time>
      </trkpt>
      <trkpt lat="47.90047" lon="7.29212">
        <ele>222.2</ele>
        <time>2014-05-04T09:51:09Z</time>
      </trkpt>
      <trkpt lat="47.90052" lon="7.29213">
        <ele>220.76</ele>
        <time>2014-05-04T09:51:15Z</time>
      </trkpt>
      <trkpt lat="47.90064" lon="7.29223">
        <ele>220.76</ele>
        <time>2014-05-04T09:51:27Z</time>
      </trkpt>
      <trkpt lat="47.90066" lon="7.29233">
        <ele>220.76</ele>
        <time>2014-05-04T09:51:32Z</time>
      </trkpt>
      <trkpt lat="47.90071" lon="7.29261">
        <ele>221.24</ele>
        <time>2014-05-04T09:51:48Z</time>
      </trkpt>
      <trkpt lat="47.90078" lon="7.29289">
        <ele>220.76</ele>
        <time>2014-05-04T09:52:03Z</time>
      </trkpt>
      <trkpt lat="47.90081" lon="7.29312">
        <ele>222.2</ele>
        <time>2014-05-04T09:52:16Z</time>
      </trkpt>
      <trkpt lat="47.90084" lon="7.29326">
        <ele>223.16</ele>
        <time>2014-05-04T09:52:25Z</time>
      </trkpt>
      <trkpt lat="47.90085" lon="7.29331">
        <ele>222.68</ele>
        <time>2014-05-04T09:52:28Z</time>
      </trkpt>
      <trkpt lat="47.90089" lon="7.29353">
        <ele>222.2</ele>
        <time>2014-05-04T09:52:41Z</time>
      </trkpt>
      <trkpt lat="47.90091" lon="7.29362">
        <ele>222.68</ele>
        <time>2014-05-04T09:52:47Z</time>
      </trkpt>
      <trkpt lat="47.90092" lon="7.29366">
        <ele>222.2</ele>
        <time>2014-05-04T09:52:50Z</time>
      </trkpt>
      <trkpt lat="47.90095" lon="7.29385">
        <ele>221.24</ele>
        <time>2014-05-04T09:53:01Z</time>
      </trkpt>
      <trkpt lat="47.90097" lon="7.29396">
        <ele>220.76</ele>
        <time>2014-05-04T09:53:07Z</time>
      </trkpt>
      <trkpt lat="47.901" lon="7.29418">
        <ele>220.76</ele>
        <time>2014-05-04T09:53:20Z</time>
      </trkpt>
      <trkpt lat="47.90095" lon="7.29431">
        <ele>218.36</ele>
        <time>2014-05-04T09:53:35Z</time>
      </trkpt>
      <trkpt lat="47.90094" lon="7.29433">
        <ele>218.36</ele>
        <time>2014-05-04T09:53:54Z</time>
      </trkpt>
      <trkpt lat="47.90094" lon="7.29442">
        <ele>218.36</ele>
        <time>2014-05-04T09:54:11Z</time>
      </trkpt>
      <trkpt lat="47.90102" lon="7.29458">
        <ele>220.28</ele>
        <time>2014-05-04T09:54:21Z</time>
      </trkpt>
      <trkpt lat="47.90105" lon="7.29474">
        <ele>220.28</ele>
        <time>2014-05-04T09:54:31Z</time>
      </trkpt>
      <trkpt lat="47.90106" lon="7.29501">
        <ele>217.4</ele>
        <time>2014-05-04T09:54:47Z</time>
      </trkpt>
      <trkpt lat="47.90106" lon="7.29504">
        <ele>216.91</ele>
        <time>2014-05-04T09:54:49Z</time>
      </trkpt>
      <trkpt lat="47.90106" lon="7.29513">
        <ele>216.43</ele>
        <time>2014-05-04T09:54:54Z</time>
      </trkpt>
      <trkpt lat="47.90108" lon="7.2955">
        <ele>213.07</ele>
        <time>2014-05-04T09:55:15Z</time>
      </trkpt>
      <trkpt lat="47.90118" lon="7.29584">
        <ele>213.55</ele>
        <time>2014-05-04T09:55:33Z</time>
      </trkpt>
      <trkpt lat="47.90122" lon="7.29612">
        <ele>213.07</ele>
        <time>2014-05-04T09:55:49Z</time>
      </trkpt>
      <trkpt lat="47.90132" lon="7.29628">
        <ele>214.51</ele>
        <time>2014-05-04T09:56:00Z</time>
      </trkpt>
      <trkpt lat="47.9015" lon="7.29622">
        <ele>212.11</ele>
        <time>2014-05-04T09:56:18Z</time>
      </trkpt>
      <trkpt lat="47.90153" lon="7.29621">
        <ele>212.11</ele>
        <time>2014-05-04T09:56:20Z</time>
      </trkpt>
      <trkpt lat="47.9016" lon="7.29621">
        <ele>212.11</ele>
        <time>2014-05-04T09:56:24Z</time>
      </trkpt>
      <trkpt lat="47.90183" lon="7.29624">
        <ele>211.63</ele>
        <time>2014-05-04T09:56:42Z</time>
      </trkpt>
      <trkpt lat="47.90208" lon="7.2962">
        <ele>209.22</ele>
        <time>2014-05-04T09:57:02Z</time>
      </trkpt>
      <trkpt lat="47.90233" lon="7.29608">
        <ele>209.22</ele>
        <time>2014-05-04T09:57:23Z</time>
      </trkpt>
      <trkpt lat="47.90257" lon="7.296">
        <ele>207.78</ele>
        <time>2014-05-04T09:57:42Z</time>
      </trkpt>
      <trkpt lat="47.90287" lon="7.29587">
        <ele>207.3</ele>
        <time>2014-05-04T09:58:05Z</time>
      </trkpt>
      <trkpt lat="47.90307" lon="7.29584">
        <ele>202.01</ele>
        <time>2014-05-04T09:58:24Z</time>
      </trkpt>
      <trkpt lat="47.90328" lon="7.29575">
        <ele>199.13</ele>
        <time>2014-05-04T09:58:43Z</time>
      </trkpt>
      <trkpt lat="47.90348" lon="7.29566">
        <ele>196.73</ele>
        <time>2014-05-04T09:59:02Z</time>
      </trkpt>
      <trkpt lat="47.90372" lon="7.29561">
        <ele>194.32</ele>
        <time>2014-05-04T09:59:19Z</time>
      </trkpt>
      <trkpt lat="47.90402" lon="7.29547">
        <ele>195.28</ele>
        <time>2014-05-04T09:59:40Z</time>
      </trkpt>
      <trkpt lat="47.90425" lon="7.29528">
        <ele>202.01</ele>
        <time>2014-05-04T09:59:56Z</time>
      </trkpt>
      <trkpt lat="47.90448" lon="7.29515">
        <ele>207.78</ele>
        <time>2014-05-04T10:00:12Z</time>
      </trkpt>
      <trkpt lat="47.90452" lon="7.29526">
        <ele>209.22</ele>
        <time>2014-05-04T10:00:19Z</time>
      </trkpt>
      <trkpt lat="47.90459" lon="7.29563">
        <ele>208.26</ele>
        <time>2014-05-04T10:00:41Z</time>
      </trkpt>
      <trkpt lat="47.90463" lon="7.29601">
        <ele>209.7</ele>
        <time>2014-05-04T10:00:59Z</time>
      </trkpt>
      <trkpt lat="47.90468" lon="7.29626">
        <ele>210.19</ele>
        <time>2014-05-04T10:01:14Z</time>
      </trkpt>
      <trkpt lat="47.90476" lon="7.29651">
        <ele>210.67</ele>
        <time>2014-05-04T10:01:29Z</time>
      </trkpt>
      <trkpt lat="47.90479" lon="7.29678">
        <ele>208.74</ele>
        <time>2014-05-04T10:01:45Z</time>
      </trkpt>
      <trkpt lat="47.90484" lon="7.29714">
        <ele>208.26</ele>
        <time>2014-05-04T10:02:06Z</time>
      </trkpt>
      <trkpt lat="47.90492" lon="7.29748">
        <ele>209.7</ele>
        <time>2014-05-04T10:02:23Z</time>
      </trkpt>
      <trkpt lat="47.90494" lon="7.29783">
        <ele>209.7</ele>
        <time>2014-05-04T10:02:40Z</time>
      </trkpt>
      <trkpt lat="47.90502" lon="7.29807">
        <ele>210.67</ele>
        <time>2014-05-04T10:02:52Z</time>
      </trkpt>
      <trkpt lat="47.90513" lon="7.29816">
        <ele>210.19</ele>
        <time>2014-05-04T10:03:01Z</time>
      </trkpt>
      <trkpt lat="47.90541" lon="7.29811">
        <ele>209.7</ele>
        <time>2014-05-04T10:03:18Z</time>
      </trkpt>
      <trkpt lat="47.90568" lon="7.29802">
        <ele>210.67</ele>
        <time>2014-05-04T10:03:37Z</time>
      </trkpt>
      <trkpt lat="47.90593" lon="7.29795">
        <ele>216.91</ele>
        <time>2014-05-04T10:03:55Z</time>
      </trkpt>
      <trkpt lat="47.90593" lon="7.29792">
        <ele>218.84</ele>
        <time>2014-05-04T10:04:15Z</time>
      </trkpt>
      <trkpt lat="47.90593" lon="7.29792">
        <ele>219.32</ele>
        <time>2014-05-04T10:04:38Z</time>
      </trkpt>
      <trkpt lat="47.90593" lon="7.29792">
        <ele>219.8</ele>
        <time>2014-05-04T10:05:06Z</time>
      </trkpt>
      <trkpt lat="47.90593" lon="7.29793">
        <ele>220.76</ele>
        <time>2014-05-04T10:05:27Z</time>
      </trkpt>
      <trkpt lat="47.90593" lon="7.29793">
        <ele>220.28</ele>
        <time>2014-05-04T10:05:50Z</time>
      </trkpt>
      <trkpt lat="47.90594" lon="7.29793">
        <ele>220.76</ele>
        <time>2014-05-04T10:06:14Z</time>
      </trkpt>
      <trkpt lat="47.90607" lon="7.29788">
        <ele>221.72</ele>
        <time>2014-05-04T10:06:25Z</time>
      </trkpt>
      <trkpt lat="47.9063" lon="7.2978">
        <ele>224.12</ele>
        <time>2014-05-04T10:06:42Z</time>
      </trkpt>
      <trkpt lat="47.90653" lon="7.29769">
        <ele>224.12</ele>
        <time>2014-05-04T10:07:00Z</time>
      </trkpt>
      <trkpt lat="47.90672" lon="7.29757">
        <ele>222.68</ele>
        <time>2014-05-04T10:07:15Z</time>
      </trkpt>
      <trkpt lat="47.90678" lon="7.2976">
        <ele>222.2</ele>
        <time>2014-05-04T10:07:20Z</time>
      </trkpt>
      <trkpt lat="47.9068" lon="7.29776">
        <ele>221.72</ele>
        <time>2014-05-04T10:07:27Z</time>
      </trkpt>
      <trkpt lat="47.90681" lon="7.29814">
        <ele>219.32</ele>
        <time>2014-05-04T10:07:44Z</time>
      </trkpt>
      <trkpt lat="47.90689" lon="7.29853">
        <ele>218.36</ele>
        <time>2014-05-04T10:08:02Z</time>
      </trkpt>
      <trkpt lat="47.90695" lon="7.29895">
        <ele>215.95</ele>
        <time>2014-05-04T10:08:22Z</time>
      </trkpt>
      <trkpt lat="47.90709" lon="7.29931">
        <ele>214.03</ele>
        <time>2014-05-04T10:08:42Z</time>
      </trkpt>
      <trkpt lat="47.90729" lon="7.29973">
        <ele>214.99</ele>
        <time>2014-05-04T10:09:06Z</time>
      </trkpt>
      <trkpt lat="47.90728" lon="7.29978">
        <ele>214.51</ele>
        <time>2014-05-04T10:09:09Z</time>
      </trkpt>
      <trkpt lat="47.90707" lon="7.29983">
        <ele>214.99</ele>
        <time>2014-05-04T10:09:22Z</time>
      </trkpt>
      <trkpt lat="47.90686" lon="7.29972">
        <ele>216.91</ele>
        <time>2014-05-04T10:09:38Z</time>
      </trkpt>
      <trkpt lat="47.90662" lon="7.29956">
        <ele>216.91</ele>
        <time>2014-05-04T10:09:58Z</time>
      </trkpt>
      <trkpt lat="47.90636" lon="7.29946">
        <ele>216.43</ele>
        <time>2014-05-04T10:10:16Z</time>
      </trkpt>
      <trkpt lat="47.90614" lon="7.29932">
        <ele>216.43</ele>
        <time>2014-05-04T10:10:32Z</time>
      </trkpt>
      <trkpt lat="47.90594" lon="7.29922">
        <ele>215.95</ele>
        <time>2014-05-04T10:10:47Z</time>
      </trkpt>
      <trkpt lat="47.9057" lon="7.29912">
        <ele>213.55</ele>
        <time>2014-05-04T10:11:05Z</time>
      </trkpt>
      <trkpt lat="47.90546" lon="7.29901">
        <ele>213.55</ele>
        <time>2014-05-04T10:11:22Z</time>
      </trkpt>
      <trkpt lat="47.90527" lon="7.29895">
        <ele>214.51</ele>
        <time>2014-05-04T10:11:34Z</time>
      </trkpt>
      <trkpt lat="47.90504" lon="7.29883">
        <ele>215.95</ele>
        <time>2014-05-04T10:11:49Z</time>
      </trkpt>
      <trkpt lat="47.90482" lon="7.29874">
        <ele>219.32</ele>
        <time>2014-05-04T10:12:03Z</time>
      </trkpt>
      <trkpt lat="47.9046" lon="7.29866">
        <ele>221.72</ele>
        <time>2014-05-04T10:12:18Z</time>
      </trkpt>
      <trkpt lat="47.90436" lon="7.29855">
        <ele>222.2</ele>
        <time>2014-05-04T10:12:35Z</time>
      </trkpt>
      <trkpt lat="47.90414" lon="7.29847">
        <ele>223.16</ele>
        <time>2014-05-04T10:12:50Z</time>
      </trkpt>
      <trkpt lat="47.90399" lon="7.29844">
        <ele>223.64</ele>
        <time>2014-05-04T10:13:02Z</time>
      </trkpt>
      <trkpt lat="47.90376" lon="7.2985">
        <ele>222.68</ele>
        <time>2014-05-04T10:13:20Z</time>
      </trkpt>
      <trkpt lat="47.90355" lon="7.29854">
        <ele>219.8</ele>
        <time>2014-05-04T10:13:36Z</time>
      </trkpt>
      <trkpt lat="47.90331" lon="7.29869">
        <ele>217.4</ele>
        <time>2014-05-04T10:13:53Z</time>
      </trkpt>
      <trkpt lat="47.90306" lon="7.29877">
        <ele>216.43</ele>
        <time>2014-05-04T10:14:10Z</time>
      </trkpt>
      <trkpt lat="47.90286" lon="7.29885">
        <ele>215.47</ele>
        <time>2014-05-04T10:14:26Z</time>
      </trkpt>
      <trkpt lat="47.90277" lon="7.29892">
        <ele>216.91</ele>
        <time>2014-05-04T10:14:34Z</time>
      </trkpt>
      <trkpt lat="47.90278" lon="7.29937">
        <ele>217.88</ele>
        <time>2014-05-04T10:14:51Z</time>
      </trkpt>
      <trkpt lat="47.90284" lon="7.29977">
        <ele>219.8</ele>
        <time>2014-05-04T10:15:09Z</time>
      </trkpt>
      <trkpt lat="47.90292" lon="7.30019">
        <ele>221.24</ele>
        <time>2014-05-04T10:15:28Z</time>
      </trkpt>
      <trkpt lat="47.90297" lon="7.30053">
        <ele>220.76</ele>
        <time>2014-05-04T10:15:46Z</time>
      </trkpt>
      <trkpt lat="47.90303" lon="7.3009">
        <ele>220.28</ele>
        <time>2014-05-04T10:16:04Z</time>
      </trkpt>
      <trkpt lat="47.90309" lon="7.30124">
        <ele>221.24</ele>
        <time>2014-05-04T10:16:21Z</time>
      </trkpt>
      <trkpt lat="47.90312" lon="7.30159">
        <ele>220.28</ele>
        <time>2014-05-04T10:16:39Z</time>
      </trkpt>
      <trkpt lat="47.90316" lon="7.30197">
        <ele>219.32</ele>
        <time>2014-05-04T10:16:58Z</time>
      </trkpt>
      <trkpt lat="47.90318" lon="7.30231">
        <ele>221.24</ele>
        <time>2014-05-04T10:17:15Z</time>
      </trkpt>
      <trkpt lat="47.90309" lon="7.3026">
        <ele>219.32</ele>
        <time>2014-05-04T10:17:32Z</time>
      </trkpt>
      <trkpt lat="47.9029" lon="7.30273">
        <ele>215.95</ele>
        <time>2014-05-04T10:17:48Z</time>
      </trkpt>
      <trkpt lat="47.90287" lon="7.30274">
        <ele>215.47</ele>
        <time>2014-05-04T10:17:50Z</time>
      </trkpt>
      <trkpt lat="47.90264" lon="7.30277">
        <ele>211.63</ele>
        <time>2014-05-04T10:18:08Z</time>
      </trkpt>
      <trkpt lat="47.90237" lon="7.30288">
        <ele>212.59</ele>
        <time>2014-05-04T10:18:28Z</time>
      </trkpt>
      <trkpt lat="47.90212" lon="7.30298">
        <ele>214.03</ele>
        <time>2014-05-04T10:18:46Z</time>
      </trkpt>
      <trkpt lat="47.90188" lon="7.30306">
        <ele>214.99</ele>
        <time>2014-05-04T10:19:04Z</time>
      </trkpt>
      <trkpt lat="47.90161" lon="7.30314">
        <ele>215.47</ele>
        <time>2014-05-04T10:19:23Z</time>
      </trkpt>
      <trkpt lat="47.9015" lon="7.30326">
        <ele>214.03</ele>
        <time>2014-05-04T10:19:34Z</time>
      </trkpt>
      <trkpt lat="47.90152" lon="7.30339">
        <ele>212.59</ele>
        <time>2014-05-04T10:19:41Z</time>
      </trkpt>
      <trkpt lat="47.9015" lon="7.30377">
        <ele>212.59</ele>
        <time>2014-05-04T10:19:58Z</time>
      </trkpt>
      <trkpt lat="47.90147" lon="7.30414">
        <ele>214.03</ele>
        <time>2014-05-04T10:20:14Z</time>
      </trkpt>
      <trkpt lat="47.90144" lon="7.30445">
        <ele>215.95</ele>
        <time>2014-05-04T10:20:30Z</time>
      </trkpt>
      <trkpt lat="47.90141" lon="7.30476">
        <ele>216.43</ele>
        <time>2014-05-04T10:20:44Z</time>
      </trkpt>
      <trkpt lat="47.90138" lon="7.30508">
        <ele>216.91</ele>
        <time>2014-05-04T10:21:00Z</time>
      </trkpt>
      <trkpt lat="47.90134" lon="7.30539">
        <ele>217.4</ele>
        <time>2014-05-04T10:21:15Z</time>
      </trkpt>
      <trkpt lat="47.90131" lon="7.30559">
        <ele>218.36</ele>
        <time>2014-05-04T10:21:29Z</time>
      </trkpt>
      <trkpt lat="47.90126" lon="7.30574">
        <ele>216.91</ele>
        <time>2014-05-04T10:21:40Z</time>
      </trkpt>
      <trkpt lat="47.90123" lon="7.30594">
        <ele>216.91</ele>
        <time>2014-05-04T10:21:52Z</time>
      </trkpt>
      <trkpt lat="47.90118" lon="7.30632">
        <ele>218.84</ele>
        <time>2014-05-04T10:22:10Z</time>
      </trkpt>
      <trkpt lat="47.90115" lon="7.3066">
        <ele>219.32</ele>
        <time>2014-05-04T10:22:23Z</time>
      </trkpt>
      <trkpt lat="47.9011" lon="7.30697">
        <ele>219.8</ele>
        <time>2014-05-04T10:22:38Z</time>
      </trkpt>
      <trkpt lat="47.90111" lon="7.30724">
        <ele>219.32</ele>
        <time>2014-05-04T10:22:52Z</time>
      </trkpt>
      <trkpt lat="47.90116" lon="7.30739">
        <ele>217.88</ele>
        <time>2014-05-04T10:23:06Z</time>
      </trkpt>
      <trkpt lat="47.90117" lon="7.30739">
        <ele>217.4</ele>
        <time>2014-05-04T10:23:08Z</time>
      </trkpt>
      <trkpt lat="47.90132" lon="7.30756">
        <ele>215.47</ele>
        <time>2014-05-04T10:23:27Z</time>
      </trkpt>
      <trkpt lat="47.9013" lon="7.30759">
        <ele>214.51</ele>
        <time>2014-05-04T10:23:40Z</time>
      </trkpt>
      <trkpt lat="47.90133" lon="7.30767">
        <ele>214.99</ele>
        <time>2014-05-04T10:23:50Z</time>
      </trkpt>
      <trkpt lat="47.90132" lon="7.30768">
        <ele>215.95</ele>
        <time>2014-05-04T10:24:10Z</time>
      </trkpt>
      <trkpt lat="47.90137" lon="7.30776">
        <ele>215.95</ele>
        <time>2014-05-04T10:24:19Z</time>
      </trkpt>
      <trkpt lat="47.90146" lon="7.30786">
        <ele>215.47</ele>
        <time>2014-05-04T10:24:30Z</time>
      </trkpt>
      <trkpt lat="47.9016" lon="7.308">
        <ele>215.95</ele>
        <time>2014-05-04T10:24:42Z</time>
      </trkpt>
      <trkpt lat="47.90172" lon="7.30815">
        <ele>215.47</ele>
        <time>2014-05-04T10:24:55Z</time>
      </trkpt>
      <trkpt lat="47.90179" lon="7.30831">
        <ele>212.59</ele>
        <time>2014-05-04T10:25:07Z</time>
      </trkpt>
      <trkpt lat="47.9019" lon="7.30851">
        <ele>209.7</ele>
        <time>2014-05-04T10:25:21Z</time>
      </trkpt>
      <trkpt lat="47.90204" lon="7.30866">
        <ele>208.74</ele>
        <time>2014-05-04T10:25:33Z</time>
      </trkpt>
      <trkpt lat="47.90222" lon="7.30887">
        <ele>208.74</ele>
        <time>2014-05-04T10:25:47Z</time>
      </trkpt>
      <trkpt lat="47.90233" lon="7.30907">
        <ele>208.74</ele>
        <time>2014-05-04T10:26:01Z</time>
      </trkpt>
      <trkpt lat="47.90238" lon="7.30913">
        <ele>208.74</ele>
        <time>2014-05-04T10:26:06Z</time>
      </trkpt>
      <trkpt lat="47.90254" lon="7.30937">
        <ele>209.7</ele>
        <time>2014-05-04T10:26:21Z</time>
      </trkpt>
      <trkpt lat="47.9027" lon="7.30952">
        <ele>214.03</ele>
        <time>2014-05-04T10:26:32Z</time>
      </trkpt>
      <trkpt lat="47.90281" lon="7.30966">
        <ele>212.59</ele>
        <time>2014-05-04T10:26:45Z</time>
      </trkpt>
      <trkpt lat="47.90285" lon="7.3097">
        <ele>212.11</ele>
        <time>2014-05-04T10:26:49Z</time>
      </trkpt>
      <trkpt lat="47.90294" lon="7.3099">
        <ele>209.22</ele>
        <time>2014-05-04T10:27:02Z</time>
      </trkpt>
      <trkpt lat="47.90294" lon="7.30992">
        <ele>208.74</ele>
        <time>2014-05-04T10:27:03Z</time>
      </trkpt>
      <trkpt lat="47.90302" lon="7.31016">
        <ele>203.94</ele>
        <time>2014-05-04T10:27:18Z</time>
      </trkpt>
      <trkpt lat="47.90307" lon="7.31035">
        <ele>200.57</ele>
        <time>2014-05-04T10:27:30Z</time>
      </trkpt>
      <trkpt lat="47.90314" lon="7.31056">
        <ele>197.21</ele>
        <time>2014-05-04T10:27:42Z</time>
      </trkpt>
      <trkpt lat="47.9032" lon="7.31072">
        <ele>194.32</ele>
        <time>2014-05-04T10:27:53Z</time>
      </trkpt>
      <trkpt lat="47.90338" lon="7.31098">
        <ele>197.21</ele>
        <time>2014-05-04T10:28:07Z</time>
      </trkpt>
      <trkpt lat="47.90339" lon="7.31102">
        <ele>197.69</ele>
        <time>2014-05-04T10:28:09Z</time>
      </trkpt>
      <trkpt lat="47.90341" lon="7.31112">
        <ele>198.17</ele>
        <time>2014-05-04T10:28:14Z</time>
      </trkpt>
      <trkpt lat="47.90339" lon="7.31116">
        <ele>198.65</ele>
        <time>2014-05-04T10:28:17Z</time>
      </trkpt>
      <trkpt lat="47.90336" lon="7.31121">
        <ele>198.17</ele>
        <time>2014-05-04T10:28:20Z</time>
      </trkpt>
      <trkpt lat="47.90321" lon="7.31146">
        <ele>200.09</ele>
        <time>2014-05-04T10:28:34Z</time>
      </trkpt>
      <trkpt lat="47.9031" lon="7.31162">
        <ele>200.57</ele>
        <time>2014-05-04T10:28:47Z</time>
      </trkpt>
      <trkpt lat="47.90294" lon="7.31182">
        <ele>201.05</ele>
        <time>2014-05-04T10:29:01Z</time>
      </trkpt>
      <trkpt lat="47.90275" lon="7.31206">
        <ele>206.34</ele>
        <time>2014-05-04T10:29:15Z</time>
      </trkpt>
      <trkpt lat="47.90263" lon="7.31225">
        <ele>207.78</ele>
        <time>2014-05-04T10:29:26Z</time>
      </trkpt>
      <trkpt lat="47.9025" lon="7.3124">
        <ele>206.34</ele>
        <time>2014-05-04T10:29:41Z</time>
      </trkpt>
      <trkpt lat="47.90239" lon="7.31252">
        <ele>205.38</ele>
        <time>2014-05-04T10:29:54Z</time>
      </trkpt>
      <trkpt lat="47.90222" lon="7.31272">
        <ele>206.82</ele>
        <time>2014-05-04T10:30:09Z</time>
      </trkpt>
      <trkpt lat="47.90205" lon="7.31298">
        <ele>210.19</ele>
        <time>2014-05-04T10:30:21Z</time>
      </trkpt>
      <trkpt lat="47.90187" lon="7.31317">
        <ele>214.51</ele>
        <time>2014-05-04T10:30:35Z</time>
      </trkpt>
      <trkpt lat="47.90182" lon="7.31326">
        <ele>214.51</ele>
        <time>2014-05-04T10:30:49Z</time>
      </trkpt>
      <trkpt lat="47.90185" lon="7.31325">
        <ele>214.51</ele>
        <time>2014-05-04T10:31:02Z</time>
      </trkpt>
      <trkpt lat="47.90193" lon="7.31339">
        <ele>214.51</ele>
        <time>2014-05-04T10:31:13Z</time>
      </trkpt>
      <trkpt lat="47.90207" lon="7.31356">
        <ele>215.95</ele>
        <time>2014-05-04T10:31:27Z</time>
      </trkpt>
      <trkpt lat="47.90218" lon="7.3137">
        <ele>215.95</ele>
        <time>2014-05-04T10:31:39Z</time>
      </trkpt>
      <trkpt lat="47.90232" lon="7.31388">
        <ele>217.4</ele>
        <time>2014-05-04T10:31:53Z</time>
      </trkpt>
      <trkpt lat="47.90234" lon="7.31394">
        <ele>218.36</ele>
        <time>2014-05-04T10:32:09Z</time>
      </trkpt>
      <trkpt lat="47.90238" lon="7.31405">
        <ele>217.88</ele>
        <time>2014-05-04T10:32:19Z</time>
      </trkpt>
      <trkpt lat="47.90238" lon="7.31416">
        <ele>217.4</ele>
        <time>2014-05-04T10:32:30Z</time>
      </trkpt>
      <trkpt lat="47.90229" lon="7.3142">
        <ele>214.51</ele>
        <time>2014-05-04T10:32:43Z</time>
      </trkpt>
      <trkpt lat="47.90227" lon="7.31424">
        <ele>214.51</ele>
        <time>2014-05-04T10:32:54Z</time>
      </trkpt>
      <trkpt lat="47.9022" lon="7.31443">
        <ele>213.07</ele>
        <time>2014-05-04T10:33:07Z</time>
      </trkpt>
      <trkpt lat="47.90222" lon="7.31449">
        <ele>213.55</ele>
        <time>2014-05-04T10:33:18Z</time>
      </trkpt>
      <trkpt lat="47.90222" lon="7.31468">
        <ele>213.07</ele>
        <time>2014-05-04T10:33:30Z</time>
      </trkpt>
      <trkpt lat="47.90223" lon="7.31488">
        <ele>214.51</ele>
        <time>2014-05-04T10:33:44Z</time>
      </trkpt>
      <trkpt lat="47.90228" lon="7.31496">
        <ele>214.99</ele>
        <time>2014-05-04T10:33:57Z</time>
      </trkpt>
      <trkpt lat="47.90223" lon="7.31505">
        <ele>214.03</ele>
        <time>2014-05-04T10:34:08Z</time>
      </trkpt>
      <trkpt lat="47.90214" lon="7.31512">
        <ele>212.59</ele>
        <time>2014-05-04T10:34:15Z</time>
      </trkpt>
      <trkpt lat="47.90202" lon="7.31528">
        <ele>213.55</ele>
        <time>2014-05-04T10:34:26Z</time>
      </trkpt>
      <trkpt lat="47.90188" lon="7.31547">
        <ele>215.95</ele>
        <time>2014-05-04T10:34:37Z</time>
      </trkpt>
      <trkpt lat="47.90176" lon="7.31571">
        <ele>217.4</ele>
        <time>2014-05-04T10:34:48Z</time>
      </trkpt>
      <trkpt lat="47.9017" lon="7.31589">
        <ele>218.84</ele>
        <time>2014-05-04T10:35:00Z</time>
      </trkpt>
      <trkpt lat="47.90162" lon="7.31611">
        <ele>220.28</ele>
        <time>2014-05-04T10:35:14Z</time>
      </trkpt>
      <trkpt lat="47.90162" lon="7.31614">
        <ele>220.28</ele>
        <time>2014-05-04T10:35:16Z</time>
      </trkpt>
      <trkpt lat="47.90174" lon="7.31624">
        <ele>219.8</ele>
        <time>2014-05-04T10:35:28Z</time>
      </trkpt>
      <trkpt lat="47.90179" lon="7.31625">
        <ele>220.28</ele>
        <time>2014-05-04T10:35:41Z</time>
      </trkpt>
      <trkpt lat="47.90191" lon="7.31629">
        <ele>221.24</ele>
        <time>2014-05-04T10:35:52Z</time>
      </trkpt>
      <trkpt lat="47.90197" lon="7.31629">
        <ele>217.4</ele>
        <time>2014-05-04T10:36:10Z</time>
      </trkpt>
      <trkpt lat="47.90207" lon="7.3163">
        <ele>216.43</ele>
        <time>2014-05-04T10:36:14Z</time>
      </trkpt>
      <trkpt lat="47.90231" lon="7.31638">
        <ele>217.4</ele>
        <time>2014-05-04T10:36:23Z</time>
      </trkpt>
      <trkpt lat="47.90242" lon="7.3164">
        <ele>222.68</ele>
        <time>2014-05-04T10:36:33Z</time>
      </trkpt>
      <trkpt lat="47.90254" lon="7.31647">
        <ele>226.05</ele>
        <time>2014-05-04T10:36:43Z</time>
      </trkpt>
      <trkpt lat="47.90267" lon="7.3165">
        <ele>228.45</ele>
        <time>2014-05-04T10:36:55Z</time>
      </trkpt>
      <trkpt lat="47.90276" lon="7.31651">
        <ele>231.33</ele>
        <time>2014-05-04T10:37:06Z</time>
      </trkpt>
      <trkpt lat="47.90289" lon="7.31653">
        <ele>235.18</ele>
        <time>2014-05-04T10:37:22Z</time>
      </trkpt>
      <trkpt lat="47.90318" lon="7.31658">
        <ele>238.54</ele>
        <time>2014-05-04T10:37:38Z</time>
      </trkpt>
      <trkpt lat="47.90324" lon="7.31664">
        <ele>239.51</ele>
        <time>2014-05-04T10:37:43Z</time>
      </trkpt>
      <trkpt lat="47.90346" lon="7.31665">
        <ele>240.95</ele>
        <time>2014-05-04T10:37:58Z</time>
      </trkpt>
      <trkpt lat="47.90351" lon="7.31665">
        <ele>241.43</ele>
        <time>2014-05-04T10:38:02Z</time>
      </trkpt>
      <trkpt lat="47.90382" lon="7.31677">
        <ele>241.91</ele>
        <time>2014-05-04T10:38:17Z</time>
      </trkpt>
      <trkpt lat="47.90398" lon="7.31676">
        <ele>239.51</ele>
        <time>2014-05-04T10:38:32Z</time>
      </trkpt>
      <trkpt lat="47.90418" lon="7.31687">
        <ele>238.54</ele>
        <time>2014-05-04T10:38:49Z</time>
      </trkpt>
      <trkpt lat="47.90432" lon="7.31693">
        <ele>236.14</ele>
        <time>2014-05-04T10:39:07Z</time>
      </trkpt>
      <trkpt lat="47.90447" lon="7.31698">
        <ele>234.22</ele>
        <time>2014-05-04T10:39:21Z</time>
      </trkpt>
      <trkpt lat="47.9045" lon="7.317">
        <ele>233.74</ele>
        <time>2014-05-04T10:39:35Z</time>
      </trkpt>
      <trkpt lat="47.90475" lon="7.31703">
        <ele>231.33</ele>
        <time>2014-05-04T10:39:49Z</time>
      </trkpt>
      <trkpt lat="47.90485" lon="7.31702">
        <ele>229.41</ele>
        <time>2014-05-04T10:40:05Z</time>
      </trkpt>
      <trkpt lat="47.90526" lon="7.31704">
        <ele>228.45</ele>
        <time>2014-05-04T10:40:19Z</time>
      </trkpt>
      <trkpt lat="47.90555" lon="7.317">
        <ele>224.61</ele>
        <time>2014-05-04T10:40:35Z</time>
      </trkpt>
      <trkpt lat="47.9057" lon="7.31699">
        <ele>221.72</ele>
        <time>2014-05-04T10:40:50Z</time>
      </trkpt>
      <trkpt lat="47.90586" lon="7.317">
        <ele>215.95</ele>
        <time>2014-05-04T10:41:03Z</time>
      </trkpt>
      <trkpt lat="47.906" lon="7.31697">
        <ele>213.55</ele>
        <time>2014-05-04T10:41:18Z</time>
      </trkpt>
      <trkpt lat="47.90614" lon="7.31699">
        <ele>210.67</ele>
        <time>2014-05-04T10:41:37Z</time>
      </trkpt>
      <trkpt lat="47.90646" lon="7.31701">
        <ele>204.9</ele>
        <time>2014-05-04T10:41:53Z</time>
      </trkpt>
      <trkpt lat="47.90664" lon="7.317">
        <ele>200.57</ele>
        <time>2014-05-04T10:42:06Z</time>
      </trkpt>
      <trkpt lat="47.90672" lon="7.317">
        <ele>198.65</ele>
        <time>2014-05-04T10:42:23Z</time>
      </trkpt>
      <trkpt lat="47.907" lon="7.31696">
        <ele>201.53</ele>
        <time>2014-05-04T10:42:38Z</time>
      </trkpt>
      <trkpt lat="47.9071" lon="7.31696">
        <ele>202.01</ele>
        <time>2014-05-04T10:42:55Z</time>
      </trkpt>
      <trkpt lat="47.90728" lon="7.31695">
        <ele>203.94</ele>
        <time>2014-05-04T10:43:11Z</time>
      </trkpt>
      <trkpt lat="47.90744" lon="7.31695">
        <ele>204.42</ele>
        <time>2014-05-04T10:43:26Z</time>
      </trkpt>
      <trkpt lat="47.9076" lon="7.31694">
        <ele>204.42</ele>
        <time>2014-05-04T10:43:41Z</time>
      </trkpt>
      <trkpt lat="47.90787" lon="7.31696">
        <ele>205.86</ele>
        <time>2014-05-04T10:43:56Z</time>
      </trkpt>
      <trkpt lat="47.90818" lon="7.31692">
        <ele>206.82</ele>
        <time>2014-05-04T10:44:11Z</time>
      </trkpt>
      <trkpt lat="47.90835" lon="7.31689">
        <ele>208.26</ele>
        <time>2014-05-04T10:44:26Z</time>
      </trkpt>
      <trkpt lat="47.90852" lon="7.31689">
        <ele>208.74</ele>
        <time>2014-05-04T10:44:39Z</time>
      </trkpt>
      <trkpt lat="47.90879" lon="7.31684">
        <ele>210.67</ele>
        <time>2014-05-04T10:44:57Z</time>
      </trkpt>
      <trkpt lat="47.90891" lon="7.31685">
        <ele>210.67</ele>
        <time>2014-05-04T10:45:13Z</time>
      </trkpt>
      <trkpt lat="47.90917" lon="7.31689">
        <ele>211.15</ele>
        <time>2014-05-04T10:45:25Z</time>
      </trkpt>
      <trkpt lat="47.90958" lon="7.31688">
        <ele>213.55</ele>
        <time>2014-05-04T10:45:40Z</time>
      </trkpt>
      <trkpt lat="47.90974" lon="7.31685">
        <ele>214.99</ele>
        <time>2014-05-04T10:45:55Z</time>
      </trkpt>
      <trkpt lat="47.90994" lon="7.31684">
        <ele>214.51</ele>
        <time>2014-05-04T10:46:11Z</time>
      </trkpt>
      <trkpt lat="47.90996" lon="7.31684">
        <ele>214.03</ele>
        <time>2014-05-04T10:46:28Z</time>
      </trkpt>
      <trkpt lat="47.91008" lon="7.31682">
        <ele>213.55</ele>
        <time>2014-05-04T10:46:44Z</time>
      </trkpt>
      <trkpt lat="47.91029" lon="7.31684">
        <ele>214.51</ele>
        <time>2014-05-04T10:47:02Z</time>
      </trkpt>
      <trkpt lat="47.91068" lon="7.31687">
        <ele>214.03</ele>
        <time>2014-05-04T10:47:16Z</time>
      </trkpt>
      <trkpt lat="47.91077" lon="7.31685">
        <ele>213.07</ele>
        <time>2014-05-04T10:47:36Z</time>
      </trkpt>
      <trkpt lat="47.91098" lon="7.31687">
        <ele>213.55</ele>
        <time>2014-05-04T10:47:48Z</time>
      </trkpt>
      <trkpt lat="47.91108" lon="7.31682">
        <ele>213.07</ele>
        <time>2014-05-04T10:48:03Z</time>
      </trkpt>
      <trkpt lat="47.91129" lon="7.31682">
        <ele>214.03</ele>
        <time>2014-05-04T10:48:15Z</time>
      </trkpt>
      <trkpt lat="47.91148" lon="7.31679">
        <ele>214.03</ele>
        <time>2014-05-04T10:48:31Z</time>
      </trkpt>
      <trkpt lat="47.91186" lon="7.31675">
        <ele>214.99</ele>
        <time>2014-05-04T10:48:46Z</time>
      </trkpt>
      <trkpt lat="47.91208" lon="7.3168">
        <ele>215.95</ele>
        <time>2014-05-04T10:48:59Z</time>
      </trkpt>
      <trkpt lat="47.91205" lon="7.31679">
        <ele>215.47</ele>
        <time>2014-05-04T10:49:05Z</time>
      </trkpt>
      <trkpt lat="47.91207" lon="7.31677">
        <ele>214.03</ele>
        <time>2014-05-04T10:49:09Z</time>
      </trkpt>
      <trkpt lat="47.91227" lon="7.31674">
        <ele>213.07</ele>
        <time>2014-05-04T10:49:24Z</time>
      </trkpt>
      <trkpt lat="47.91248" lon="7.31675">
        <ele>213.55</ele>
        <time>2014-05-04T10:49:37Z</time>
      </trkpt>
      <trkpt lat="47.9126" lon="7.31653">
        <ele>213.07</ele>
        <time>2014-05-04T10:49:53Z</time>
      </trkpt>
      <trkpt lat="47.91263" lon="7.31643">
        <ele>211.15</ele>
        <time>2014-05-04T10:50:10Z</time>
      </trkpt>
      <trkpt lat="47.91265" lon="7.31618">
        <ele>203.46</ele>
        <time>2014-05-04T10:50:25Z</time>
      </trkpt>
      <trkpt lat="47.91263" lon="7.31561">
        <ele>206.34</ele>
        <time>2014-05-04T10:50:39Z</time>
      </trkpt>
      <trkpt lat="47.91263" lon="7.31549">
        <ele>206.82</ele>
        <time>2014-05-04T10:50:53Z</time>
      </trkpt>
      <trkpt lat="47.91266" lon="7.31539">
        <ele>202.49</ele>
        <time>2014-05-04T10:51:13Z</time>
      </trkpt>
      <trkpt lat="47.91266" lon="7.31496">
        <ele>195.77</ele>
        <time>2014-05-04T10:51:28Z</time>
      </trkpt>
      <trkpt lat="47.91272" lon="7.31481">
        <ele>189.52</ele>
        <time>2014-05-04T10:51:43Z</time>
      </trkpt>
      <trkpt lat="47.91282" lon="7.31438">
        <ele>200.09</ele>
        <time>2014-05-04T10:51:55Z</time>
      </trkpt>
      <trkpt lat="47.91298" lon="7.31434">
        <ele>203.46</ele>
        <time>2014-05-04T10:52:06Z</time>
      </trkpt>
      <trkpt lat="47.91299" lon="7.31435">
        <ele>204.42</ele>
        <time>2014-05-04T10:52:09Z</time>
      </trkpt>
      <trkpt lat="47.91306" lon="7.31437">
        <ele>206.34</ele>
        <time>2014-05-04T10:52:20Z</time>
      </trkpt>
      <trkpt lat="47.91313" lon="7.31438">
        <ele>206.34</ele>
        <time>2014-05-04T10:52:30Z</time>
      </trkpt>
      <trkpt lat="47.91317" lon="7.31443">
        <ele>203.94</ele>
        <time>2014-05-04T10:52:41Z</time>
      </trkpt>
      <trkpt lat="47.9132" lon="7.31444">
        <ele>202.98</ele>
        <time>2014-05-04T10:52:43Z</time>
      </trkpt>
      <trkpt lat="47.91325" lon="7.31449">
        <ele>201.05</ele>
        <time>2014-05-04T10:52:54Z</time>
      </trkpt>
      <trkpt lat="47.9133" lon="7.31453">
        <ele>200.09</ele>
        <time>2014-05-04T10:53:05Z</time>
      </trkpt>
      <trkpt lat="47.91336" lon="7.31459">
        <ele>198.65</ele>
        <time>2014-05-04T10:53:17Z</time>
      </trkpt>
      <trkpt lat="47.91342" lon="7.3146">
        <ele>196.25</ele>
        <time>2014-05-04T10:53:27Z</time>
      </trkpt>
      <trkpt lat="47.91351" lon="7.31457">
        <ele>192.88</ele>
        <time>2014-05-04T10:53:40Z</time>
      </trkpt>
      <trkpt lat="47.91357" lon="7.31452">
        <ele>190.96</ele>
        <time>2014-05-04T10:53:52Z</time>
      </trkpt>
      <trkpt lat="47.9138" lon="7.31446">
        <ele>188.56</ele>
        <time>2014-05-04T10:54:04Z</time>
      </trkpt>
      <trkpt lat="47.91399" lon="7.31449">
        <ele>190.48</ele>
        <time>2014-05-04T10:54:17Z</time>
      </trkpt>
      <trkpt lat="47.91429" lon="7.31458">
        <ele>198.17</ele>
        <time>2014-05-04T10:54:30Z</time>
      </trkpt>
      <trkpt lat="47.91466" lon="7.31463">
        <ele>207.78</ele>
        <time>2014-05-04T10:54:44Z</time>
      </trkpt>
      <trkpt lat="47.9147" lon="7.31461">
        <ele>207.3</ele>
        <time>2014-05-04T10:54:58Z</time>
      </trkpt>
      <trkpt lat="47.91471" lon="7.3146">
        <ele>205.38</ele>
        <time>2014-05-04T10:55:12Z</time>
      </trkpt>
      <trkpt lat="47.91489" lon="7.31449">
        <ele>202.01</ele>
        <time>2014-05-04T10:55:26Z</time>
      </trkpt>
      <trkpt lat="47.9151" lon="7.31441">
        <ele>202.49</ele>
        <time>2014-05-04T10:55:39Z</time>
      </trkpt>
      <trkpt lat="47.91532" lon="7.31434">
        <ele>202.98</ele>
        <time>2014-05-04T10:55:51Z</time>
      </trkpt>
      <trkpt lat="47.91547" lon="7.31428">
        <ele>202.98</ele>
        <time>2014-05-04T10:56:03Z</time>
      </trkpt>
      <trkpt lat="47.91553" lon="7.31423">
        <ele>202.98</ele>
        <time>2014-05-04T10:56:13Z</time>
      </trkpt>
      <trkpt lat="47.91566" lon="7.31416">
        <ele>202.98</ele>
        <time>2014-05-04T10:56:27Z</time>
      </trkpt>
      <trkpt lat="47.91577" lon="7.31408">
        <ele>203.46</ele>
        <time>2014-05-04T10:56:40Z</time>
      </trkpt>
      <trkpt lat="47.91621" lon="7.31407">
        <ele>204.9</ele>
        <time>2014-05-04T10:56:54Z</time>
      </trkpt>
      <trkpt lat="47.91639" lon="7.31405">
        <ele>210.67</ele>
        <time>2014-05-04T10:57:07Z</time>
      </trkpt>
      <trkpt lat="47.91646" lon="7.31401">
        <ele>205.86</ele>
        <time>2014-05-04T10:57:21Z</time>
      </trkpt>
      <trkpt lat="47.91659" lon="7.31406">
        <ele>201.53</ele>
        <time>2014-05-04T10:57:34Z</time>
      </trkpt>
      <trkpt lat="47.9167" lon="7.31402">
        <ele>199.13</ele>
        <time>2014-05-04T10:57:47Z</time>
      </trkpt>
      <trkpt lat="47.91677" lon="7.31399">
        <ele>198.17</ele>
        <time>2014-05-04T10:57:58Z</time>
      </trkpt>
      <trkpt lat="47.91685" lon="7.31396">
        <ele>197.69</ele>
        <time>2014-05-04T10:58:11Z</time>
      </trkpt>
      <trkpt lat="47.917" lon="7.31391">
        <ele>196.73</ele>
        <time>2014-05-04T10:58:23Z</time>
      </trkpt>
      <trkpt lat="47.91707" lon="7.31388">
        <ele>196.73</ele>
        <time>2014-05-04T10:58:38Z</time>
      </trkpt>
      <trkpt lat="47.91731" lon="7.31381">
        <ele>198.65</ele>
        <time>2014-05-04T10:58:46Z</time>
      </trkpt>
      <trkpt lat="47.91738" lon="7.31377">
        <ele>200.09</ele>
        <time>2014-05-04T10:58:58Z</time>
      </trkpt>
      <trkpt lat="47.91748" lon="7.31372">
        <ele>203.94</ele>
        <time>2014-05-04T10:59:13Z</time>
      </trkpt>
      <trkpt lat="47.91746" lon="7.31359">
        <ele>206.34</ele>
        <time>2014-05-04T10:59:25Z</time>
      </trkpt>
      <trkpt lat="47.91736" lon="7.31336">
        <ele>206.82</ele>
        <time>2014-05-04T10:59:39Z</time>
      </trkpt>
      <trkpt lat="47.91725" lon="7.31316">
        <ele>206.82</ele>
        <time>2014-05-04T10:59:53Z</time>
      </trkpt>
      <trkpt lat="47.91713" lon="7.313">
        <ele>206.34</ele>
        <time>2014-05-04T11:00:05Z</time>
      </trkpt>
      <trkpt lat="47.917" lon="7.31276">
        <ele>206.34</ele>
        <time>2014-05-04T11:00:19Z</time>
      </trkpt>
      <trkpt lat="47.9169" lon="7.31251">
        <ele>206.34</ele>
        <time>2014-05-04T11:00:34Z</time>
      </trkpt>
      <trkpt lat="47.9168" lon="7.31224">
        <ele>207.3</ele>
        <time>2014-05-04T11:00:50Z</time>
      </trkpt>
      <trkpt lat="47.91677" lon="7.31201">
        <ele>206.82</ele>
        <time>2014-05-04T11:01:04Z</time>
      </trkpt>
      <trkpt lat="47.91675" lon="7.31182">
        <ele>206.34</ele>
        <time>2014-05-04T11:01:16Z</time>
      </trkpt>
      <trkpt lat="47.91674" lon="7.31153">
        <ele>205.86</ele>
        <time>2014-05-04T11:01:28Z</time>
      </trkpt>
      <trkpt lat="47.91672" lon="7.31138">
        <ele>205.38</ele>
        <time>2014-05-04T11:01:34Z</time>
      </trkpt>
      <trkpt lat="47.91667" lon="7.31101">
        <ele>203.94</ele>
        <time>2014-05-04T11:01:51Z</time>
      </trkpt>
      <trkpt lat="47.91664" lon="7.31076">
        <ele>202.98</ele>
        <time>2014-05-04T11:02:04Z</time>
      </trkpt>
      <trkpt lat="47.9166" lon="7.31053">
        <ele>200.57</ele>
        <time>2014-05-04T11:02:20Z</time>
      </trkpt>
      <trkpt lat="47.91654" lon="7.31031">
        <ele>197.69</ele>
        <time>2014-05-04T11:02:31Z</time>
      </trkpt>
      <trkpt lat="47.91642" lon="7.30998">
        <ele>198.17</ele>
        <time>2014-05-04T11:02:47Z</time>
      </trkpt>
      <trkpt lat="47.91631" lon="7.30968">
        <ele>198.17</ele>
        <time>2014-05-04T11:03:05Z</time>
      </trkpt>
      <trkpt lat="47.9163" lon="7.30964">
        <ele>198.17</ele>
        <time>2014-05-04T11:03:07Z</time>
      </trkpt>
      <trkpt lat="47.9162" lon="7.30935">
        <ele>199.61</ele>
        <time>2014-05-04T11:03:24Z</time>
      </trkpt>
      <trkpt lat="47.91609" lon="7.30907">
        <ele>199.61</ele>
        <time>2014-05-04T11:03:39Z</time>
      </trkpt>
      <trkpt lat="47.91601" lon="7.30886">
        <ele>201.05</ele>
        <time>2014-05-04T11:03:52Z</time>
      </trkpt>
      <trkpt lat="47.91592" lon="7.30856">
        <ele>201.53</ele>
        <time>2014-05-04T11:04:08Z</time>
      </trkpt>
      <trkpt lat="47.91581" lon="7.3083">
        <ele>201.05</ele>
        <time>2014-05-04T11:04:25Z</time>
      </trkpt>
      <trkpt lat="47.91573" lon="7.30808">
        <ele>201.05</ele>
        <time>2014-05-04T11:04:38Z</time>
      </trkpt>
      <trkpt lat="47.91564" lon="7.30779">
        <ele>201.53</ele>
        <time>2014-05-04T11:04:55Z</time>
      </trkpt>
      <trkpt lat="47.91558" lon="7.30749">
        <ele>202.49</ele>
        <time>2014-05-04T11:05:11Z</time>
      </trkpt>
      <trkpt lat="47.91551" lon="7.30721">
        <ele>202.01</ele>
        <time>2014-05-04T11:05:25Z</time>
      </trkpt>
      <trkpt lat="47.91543" lon="7.30701">
        <ele>201.53</ele>
        <time>2014-05-04T11:05:38Z</time>
      </trkpt>
      <trkpt lat="47.91541" lon="7.30691">
        <ele>202.01</ele>
        <time>2014-05-04T11:05:43Z</time>
      </trkpt>
      <trkpt lat="47.91528" lon="7.30657">
        <ele>202.98</ele>
        <time>2014-05-04T11:06:01Z</time>
      </trkpt>
      <trkpt lat="47.91513" lon="7.30628">
        <ele>205.86</ele>
        <time>2014-05-04T11:06:20Z</time>
      </trkpt>
      <trkpt lat="47.91499" lon="7.30607">
        <ele>210.67</ele>
        <time>2014-05-04T11:06:35Z</time>
      </trkpt>
      <trkpt lat="47.91483" lon="7.30587">
        <ele>212.59</ele>
        <time>2014-05-04T11:06:49Z</time>
      </trkpt>
      <trkpt lat="47.91472" lon="7.30565">
        <ele>214.51</ele>
        <time>2014-05-04T11:07:03Z</time>
      </trkpt>
      <trkpt lat="47.91463" lon="7.30543">
        <ele>215.47</ele>
        <time>2014-05-04T11:07:16Z</time>
      </trkpt>
      <trkpt lat="47.91454" lon="7.30522">
        <ele>216.43</ele>
        <time>2014-05-04T11:07:30Z</time>
      </trkpt>
      <trkpt lat="47.91445" lon="7.30498">
        <ele>215.47</ele>
        <time>2014-05-04T11:07:45Z</time>
      </trkpt>
      <trkpt lat="47.91437" lon="7.30477">
        <ele>215.95</ele>
        <time>2014-05-04T11:07:58Z</time>
      </trkpt>
      <trkpt lat="47.91427" lon="7.30457">
        <ele>216.91</ele>
        <time>2014-05-04T11:08:10Z</time>
      </trkpt>
      <trkpt lat="47.91416" lon="7.30442">
        <ele>217.4</ele>
        <time>2014-05-04T11:08:21Z</time>
      </trkpt>
      <trkpt lat="47.91399" lon="7.30421">
        <ele>218.36</ele>
        <time>2014-05-04T11:08:37Z</time>
      </trkpt>
      <trkpt lat="47.91385" lon="7.30406">
        <ele>219.32</ele>
        <time>2014-05-04T11:08:51Z</time>
      </trkpt>
      <trkpt lat="47.91373" lon="7.30393">
        <ele>219.8</ele>
        <time>2014-05-04T11:09:03Z</time>
      </trkpt>
      <trkpt lat="47.91361" lon="7.30377">
        <ele>220.28</ele>
        <time>2014-05-04T11:09:15Z</time>
      </trkpt>
      <trkpt lat="47.9135" lon="7.30349">
        <ele>221.24</ele>
        <time>2014-05-04T11:09:32Z</time>
      </trkpt>
      <trkpt lat="47.91341" lon="7.30322">
        <ele>220.28</ele>
        <time>2014-05-04T11:09:46Z</time>
      </trkpt>
      <trkpt lat="47.9133" lon="7.30297">
        <ele>219.8</ele>
        <time>2014-05-04T11:10:01Z</time>
      </trkpt>
      <trkpt lat="47.91325" lon="7.30283">
        <ele>220.28</ele>
        <time>2014-05-04T11:10:12Z</time>
      </trkpt>
      <trkpt lat="47.91325" lon="7.30279">
        <ele>220.28</ele>
        <time>2014-05-04T11:10:15Z</time>
      </trkpt>
      <trkpt lat="47.91325" lon="7.30262">
        <ele>221.72</ele>
        <time>2014-05-04T11:10:25Z</time>
      </trkpt>
      <trkpt lat="47.91326" lon="7.30248">
        <ele>220.76</ele>
        <time>2014-05-04T11:10:30Z</time>
      </trkpt>
      <trkpt lat="47.91326" lon="7.30221">
        <ele>218.84</ele>
        <time>2014-05-04T11:10:42Z</time>
      </trkpt>
      <trkpt lat="47.91322" lon="7.30194">
        <ele>216.91</ele>
        <time>2014-05-04T11:10:57Z</time>
      </trkpt>
      <trkpt lat="47.91318" lon="7.30178">
        <ele>215.95</ele>
        <time>2014-05-04T11:11:07Z</time>
      </trkpt>
      <trkpt lat="47.91316" lon="7.30163">
        <ele>216.43</ele>
        <time>2014-05-04T11:11:20Z</time>
      </trkpt>
      <trkpt lat="47.9131" lon="7.30143">
        <ele>213.55</ele>
        <time>2014-05-04T11:11:34Z</time>
      </trkpt>
      <trkpt lat="47.91302" lon="7.30117">
        <ele>211.15</ele>
        <time>2014-05-04T11:11:47Z</time>
      </trkpt>
      <trkpt lat="47.91294" lon="7.30085">
        <ele>210.67</ele>
        <time>2014-05-04T11:11:58Z</time>
      </trkpt>
      <trkpt lat="47.91286" lon="7.30057">
        <ele>210.67</ele>
        <time>2014-05-04T11:12:12Z</time>
      </trkpt>
      <trkpt lat="47.91282" lon="7.30043">
        <ele>208.26</ele>
        <time>2014-05-04T11:12:25Z</time>
      </trkpt>
      <trkpt lat="47.91274" lon="7.30019">
        <ele>205.38</ele>
        <time>2014-05-04T11:12:39Z</time>
      </trkpt>
      <trkpt lat="47.91271" lon="7.30012">
        <ele>204.9</ele>
        <time>2014-05-04T11:12:43Z</time>
      </trkpt>
      <trkpt lat="47.91264" lon="7.29987">
        <ele>202.98</ele>
        <time>2014-05-04T11:12:57Z</time>
      </trkpt>
      <trkpt lat="47.91255" lon="7.29963">
        <ele>205.38</ele>
        <time>2014-05-04T11:13:08Z</time>
      </trkpt>
      <trkpt lat="47.91248" lon="7.29935">
        <ele>207.78</ele>
        <time>2014-05-04T11:13:22Z</time>
      </trkpt>
      <trkpt lat="47.91241" lon="7.2991">
        <ele>206.82</ele>
        <time>2014-05-04T11:13:38Z</time>
      </trkpt>
      <trkpt lat="47.91235" lon="7.29878">
        <ele>207.78</ele>
        <time>2014-05-04T11:13:54Z</time>
      </trkpt>
      <trkpt lat="47.91229" lon="7.2985">
        <ele>211.15</ele>
        <time>2014-05-04T11:14:07Z</time>
      </trkpt>
      <trkpt lat="47.91223" lon="7.2982">
        <ele>212.59</ele>
        <time>2014-05-04T11:14:23Z</time>
      </trkpt>
      <trkpt lat="47.91219" lon="7.29797">
        <ele>211.63</ele>
        <time>2014-05-04T11:14:37Z</time>
      </trkpt>
      <trkpt lat="47.91217" lon="7.29762">
        <ele>211.15</ele>
        <time>2014-05-04T11:14:51Z</time>
      </trkpt>
      <trkpt lat="47.91215" lon="7.2974">
        <ele>209.22</ele>
        <time>2014-05-04T11:15:03Z</time>
      </trkpt>
      <trkpt lat="47.91212" lon="7.29714">
        <ele>208.26</ele>
        <time>2014-05-04T11:15:18Z</time>
      </trkpt>
      <trkpt lat="47.91208" lon="7.29695">
        <ele>208.74</ele>
        <time>2014-05-04T11:15:25Z</time>
      </trkpt>
      <trkpt lat="47.91209" lon="7.2967">
        <ele>207.78</ele>
        <time>2014-05-04T11:15:38Z</time>
      </trkpt>
      <trkpt lat="47.91205" lon="7.29647">
        <ele>203.94</ele>
        <time>2014-05-04T11:15:53Z</time>
      </trkpt>
      <trkpt lat="47.91198" lon="7.2962">
        <ele>200.09</ele>
        <time>2014-05-04T11:16:08Z</time>
      </trkpt>
      <trkpt lat="47.91196" lon="7.29616">
        <ele>199.61</ele>
        <time>2014-05-04T11:16:11Z</time>
      </trkpt>
      <trkpt lat="47.91189" lon="7.29591">
        <ele>195.77</ele>
        <time>2014-05-04T11:16:25Z</time>
      </trkpt>
      <trkpt lat="47.91171" lon="7.29561">
        <ele>202.01</ele>
        <time>2014-05-04T11:16:39Z</time>
      </trkpt>
      <trkpt lat="47.91162" lon="7.29543">
        <ele>202.49</ele>
        <time>2014-05-04T11:16:52Z</time>
      </trkpt>
      <trkpt lat="47.91154" lon="7.29518">
        <ele>201.05</ele>
        <time>2014-05-04T11:17:06Z</time>
      </trkpt>
      <trkpt lat="47.91142" lon="7.29499">
        <ele>201.05</ele>
        <time>2014-05-04T11:17:19Z</time>
      </trkpt>
      <trkpt lat="47.91128" lon="7.29474">
        <ele>207.3</ele>
        <time>2014-05-04T11:17:31Z</time>
      </trkpt>
      <trkpt lat="47.91116" lon="7.2944">
        <ele>213.07</ele>
        <time>2014-05-04T11:17:46Z</time>
      </trkpt>
      <trkpt lat="47.91103" lon="7.29416">
        <ele>213.07</ele>
        <time>2014-05-04T11:18:00Z</time>
      </trkpt>
      <trkpt lat="47.91095" lon="7.29392">
        <ele>209.22</ele>
        <time>2014-05-04T11:18:15Z</time>
      </trkpt>
      <trkpt lat="47.91089" lon="7.29375">
        <ele>211.15</ele>
        <time>2014-05-04T11:18:26Z</time>
      </trkpt>
      <trkpt lat="47.91089" lon="7.29366">
        <ele>210.19</ele>
        <time>2014-05-04T11:18:30Z</time>
      </trkpt>
      <trkpt lat="47.91089" lon="7.29345">
        <ele>207.78</ele>
        <time>2014-05-04T11:18:43Z</time>
      </trkpt>
      <trkpt lat="47.91088" lon="7.29335">
        <ele>207.78</ele>
        <time>2014-05-04T11:18:51Z</time>
      </trkpt>
      <trkpt lat="47.9109" lon="7.2932">
        <ele>209.22</ele>
        <time>2014-05-04T11:18:55Z</time>
      </trkpt>
      <trkpt lat="47.91099" lon="7.29296">
        <ele>210.19</ele>
        <time>2014-05-04T11:19:07Z</time>
      </trkpt>
      <trkpt lat="47.9111" lon="7.29266">
        <ele>211.63</ele>
        <time>2014-05-04T11:19:21Z</time>
      </trkpt>
      <trkpt lat="47.91113" lon="7.29249">
        <ele>210.19</ele>
        <time>2014-05-04T11:19:32Z</time>
      </trkpt>
      <trkpt lat="47.91106" lon="7.2923">
        <ele>210.67</ele>
        <time>2014-05-04T11:19:43Z</time>
      </trkpt>
      <trkpt lat="47.91103" lon="7.29202">
        <ele>209.7</ele>
        <time>2014-05-04T11:19:57Z</time>
      </trkpt>
      <trkpt lat="47.91101" lon="7.29197">
        <ele>208.74</ele>
        <time>2014-05-04T11:20:01Z</time>
      </trkpt>
      <trkpt lat="47.91102" lon="7.29185">
        <ele>207.78</ele>
        <time>2014-05-04T11:20:07Z</time>
      </trkpt>
      <trkpt lat="47.91103" lon="7.2918">
        <ele>208.74</ele>
        <time>2014-05-04T11:20:09Z</time>
      </trkpt>
      <trkpt lat="47.91114" lon="7.29168">
        <ele>214.99</ele>
        <time>2014-05-04T11:20:20Z</time>
      </trkpt>
      <trkpt lat="47.91124" lon="7.29165">
        <ele>215.95</ele>
        <time>2014-05-04T11:20:33Z</time>
      </trkpt>
      <trkpt lat="47.91125" lon="7.29164">
        <ele>216.43</ele>
        <time>2014-05-04T11:20:49Z</time>
      </trkpt>
      <trkpt lat="47.91125" lon="7.29161">
        <ele>218.84</ele>
        <time>2014-05-04T11:21:05Z</time>
      </trkpt>
      <trkpt lat="47.91126" lon="7.29161">
        <ele>219.32</ele>
        <time>2014-05-04T11:21:28Z</time>
      </trkpt>
    </trkseg>
  </trk>
</gpx>